Alcira, Spain
Current Conditions -  °F | °C
As of 3:30 PM on Saturday 25 Oct 2014 (Local Time) from LEVC Reporting Station
Clear Clear  
Wind Chill: 29°   Ceiling: Unl
Heat Index: 29°   Visibility: 6mi
Dew Point:   Wind: 6mph
Humidity: 22%   Direction: 140°SE
Pressure: 30.06"   Gusts: NA
Location:  39.15°N, 0.44°W
Report Text: LEVC 251330Z 14005KT 090V170 CAVOK 29/05 Q1018 NOSIG
Loading
Personal Weather Stations






























Interactive Weather Map
Tropical Storm Tracking
New forecast layout! Learn more

10-Day Weather Forecast

Advertisements
Track Severe Weather on mobile